الصفحة الرئيسية
METAR-TAF:

METAR-TAF

مطار :

Resolute, نونافوت, كندا

دائرة عرض: 74-43N, خط طول: 094-59W, ارتفاع: 67 متر

مراقبة الطقس الحالي

تاريخ ووقت الإصدار 3ساعات و 55 دقيقة قبل الساعة 13:00UTC
ريح 2 عقدة من الجنوب الشرقي
درجة الحرارة -26°درجة مئوية
الرطوبة 76%
ضغط 1015 hPa
الرؤية: 24.1 كم
غيوم قليلة على ارتفاع 9000 قدم
بلورات ثلجية

METAR: CYRB 251300Z 13002KT 15SM IC FEW090 M26/M29 A2996 RMK AC1 AC TR SLP158

زمن: 11:55 (16:55 UTC)

توقعات

تاريخ ووقت الإصدار 5ساعات و 17 دقيقة قبل الساعة 11:38UTC
التوقعات صالحة من25 الساعة 12 UTC إلى 26 الساعة 12 UTC
ريح 6 عقدة من الشرق
الرؤية: 10 كم
سماء صافية
بلورات ثلجية
من 25 الساعة 1800 UTC
ريح 8 عقدة من الشمال الشرقي
الرؤية: 10 كم
غيوم متفرقة على ارتفاع 10000 قدم
أصبح
من 25 الساعة 20 UTC إلى 25 الساعة 22 UTC
ريح 6 عقدة من الغرب/الجنوب الغربي
من 26 الساعة 0700 UTC
ريح 8 عقدة من الشرق/الشمال الشرقي
الرؤية: 10 كم
سماء صافية

TAF: CYRB 251138Z 2512/2612 09006KT P6SM IC SKC FM251800 05008KT P6SM SCT100 BECMG 2520/2522 25006KT FM260700 06008KT P6SM SKC RMK NXT FCST BY 251800Z

أرصاد الطقس والتوقعات من أكثر من 4000 مطار (تقارير الطقس للمطار METAR والتنبؤ بالطقس بالمطارTAF).

المحطات المتاحة هي النقط الصفراء والحمراء على الخريطة.

حرك المؤشر فوق النقطة لمعرفة اسم المحطة.

ثم انقر لمعرفة أرصاد وتوقعات الطقس.

لتغيير الخارطة: اضغط على الأزرار الخضراء مع رمز الصليب الأسود للتكبير. على الزر الأخضر مع شرطة للتصغير، أو على الأسهم الخضراء للخرائط المجاورة.


METAR-TAF: